sensor_id;sensor_type;location;lat;lon;timestamp;pressure;altitude;pressure_sealevel;temperature;humidity
19748;BME280;10032;51.386;12.516;2023-04-30T00:00:19;100651.25;;;9.91;100.00
19748;BME280;10032;51.386;12.516;2023-04-30T00:02:45;100646.91;;;9.90;100.00
19748;BME280;10032;51.386;12.516;2023-04-30T00:05:10;100641.81;;;9.82;100.00
19748;BME280;10032;51.386;12.516;2023-04-30T00:07:35;100653.00;;;9.74;100.00
19748;BME280;10032;51.386;12.516;2023-04-30T00:10:01;100660.72;;;9.71;100.00
19748;BME280;10032;51.386;12.516;2023-04-30T00:12:27;100656.25;;;9.65;100.00
19748;BME280;10032;51.386;12.516;2023-04-30T00:14:52;100669.88;;;9.58;100.00
19748;BME280;10032;51.386;12.516;2023-04-30T00:17:20;100662.56;;;9.47;100.00
19748;BME280;10032;51.386;12.516;2023-04-30T00:19:45;100666.78;;;9.43;100.00
19748;BME280;10032;51.386;12.516;2023-04-30T00:22:11;100677.44;;;9.38;100.00
19748;BME280;10032;51.386;12.516;2023-04-30T00:24:36;100678.94;;;9.34;100.00
19748;BME280;10032;51.386;12.516;2023-04-30T00:27:02;100678.00;;;9.29;100.00
19748;BME280;10032;51.386;12.516;2023-04-30T00:29:27;100680.94;;;9.27;100.00
19748;BME280;10032;51.386;12.516;2023-04-30T00:31:52;100677.78;;;9.12;100.00
19748;BME280;10032;51.386;12.516;2023-04-30T00:34:18;100683.63;;;9.09;100.00
19748;BME280;10032;51.386;12.516;2023-04-30T00:36:43;100685.75;;;9.07;100.00
19748;BME280;10032;51.386;12.516;2023-04-30T00:39:09;100695.97;;;9.05;100.00
19748;BME280;10032;51.386;12.516;2023-04-30T00:41:34;100692.50;;;8.98;100.00
19748;BME280;10032;51.386;12.516;2023-04-30T00:44:00;100686.72;;;8.95;100.00
19748;BME280;10032;51.386;12.516;2023-04-30T00:46:27;100688.22;;;8.91;100.00
19748;BME280;10032;51.386;12.516;2023-04-30T00:48:52;100695.16;;;8.87;100.00
19748;BME280;10032;51.386;12.516;2023-04-30T00:51:18;100703.47;;;8.85;100.00
19748;BME280;10032;51.386;12.516;2023-04-30T00:53:44;100700.84;;;8.79;100.00
19748;BME280;10032;51.386;12.516;2023-04-30T00:56:10;100702.34;;;8.75;100.00
19748;BME280;10032;51.386;12.516;2023-04-30T00:58:37;100705.25;;;8.73;100.00
19748;BME280;10032;51.386;12.516;2023-04-30T01:01:03;100701.75;;;8.73;100.00
19748;BME280;10032;51.386;12.516;2023-04-30T01:03:29;100704.06;;;8.69;100.00
19748;BME280;10032;51.386;12.516;2023-04-30T01:05:54;100711.13;;;8.70;100.00
19748;BME280;10032;51.386;12.516;2023-04-30T01:08:20;100701.00;;;8.66;100.00
19748;BME280;10032;51.386;12.516;2023-04-30T01:11:06;100708.31;;;8.59;100.00
19748;BME280;10032;51.386;12.516;2023-04-30T01:13:57;100721.91;;;8.52;100.00
19748;BME280;10032;51.386;12.516;2023-04-30T01:16:26;100713.47;;;8.42;100.00
19748;BME280;10032;51.386;12.516;2023-04-30T01:19:03;100720.78;;;8.35;100.00
19748;BME280;10032;51.386;12.516;2023-04-30T01:21:31;100718.09;;;8.35;100.00
19748;BME280;10032;51.386;12.516;2023-04-30T01:29:13;100731.25;;;8.25;100.00
19748;BME280;10032;51.386;12.516;2023-04-30T01:31:42;100732.53;;;8.23;100.00
19748;BME280;10032;51.386;12.516;2023-04-30T01:34:08;100742.31;;;8.17;100.00
19748;BME280;10032;51.386;12.516;2023-04-30T01:37:10;100742.31;;;8.17;100.00
19748;BME280;10032;51.386;12.516;2023-04-30T01:42:22;100739.88;;;8.09;100.00
19748;BME280;10032;51.386;12.516;2023-04-30T01:50:24;100756.50;;;8.06;100.00
19748;BME280;10032;51.386;12.516;2023-04-30T01:52:53;100757.16;;;8.02;100.00
19748;BME280;10032;51.386;12.516;2023-04-30T01:55:29;100756.34;;;8.01;100.00
19748;BME280;10032;51.386;12.516;2023-04-30T01:58:00;100768.19;;;8.00;100.00
19748;BME280;10032;51.386;12.516;2023-04-30T02:00:28;100769.19;;;7.99;100.00
19748;BME280;10032;51.386;12.516;2023-04-30T02:02:57;100766.13;;;7.96;100.00
19748;BME280;10032;51.386;12.516;2023-04-30T02:05:23;100775.25;;;7.95;100.00
19748;BME280;10032;51.386;12.516;2023-04-30T02:07:50;100786.91;;;7.89;100.00
19748;BME280;10032;51.386;12.516;2023-04-30T02:10:21;100792.34;;;7.82;100.00
19748;BME280;10032;51.386;12.516;2023-04-30T02:12:47;100789.47;;;7.77;100.00
19748;BME280;10032;51.386;12.516;2023-04-30T02:15:12;100785.38;;;7.68;100.00
19748;BME280;10032;51.386;12.516;2023-04-30T02:17:38;100791.22;;;7.59;100.00
19748;BME280;10032;51.386;12.516;2023-04-30T02:20:04;100788.78;;;7.51;100.00
19748;BME280;10032;51.386;12.516;2023-04-30T02:22:29;100795.03;;;7.45;100.00
19748;BME280;10032;51.386;12.516;2023-04-30T02:24:55;100795.25;;;7.43;100.00
19748;BME280;10032;51.386;12.516;2023-04-30T02:27:22;100796.69;;;7.39;100.00
19748;BME280;10032;51.386;12.516;2023-04-30T02:29:48;100794.84;;;7.33;100.00
19748;BME280;10032;51.386;12.516;2023-04-30T02:32:14;100805.03;;;7.31;100.00
19748;BME280;10032;51.386;12.516;2023-04-30T02:34:40;100796.94;;;7.31;100.00
19748;BME280;10032;51.386;12.516;2023-04-30T02:37:06;100794.06;;;7.26;100.00
19748;BME280;10032;51.386;12.516;2023-04-30T02:39:32;100803.59;;;7.22;100.00
19748;BME280;10032;51.386;12.516;2023-04-30T02:41:57;100804.66;;;7.15;100.00
19748;BME280;10032;51.386;12.516;2023-04-30T02:44:23;100807.75;;;7.12;100.00
19748;BME280;10032;51.386;12.516;2023-04-30T02:46:49;100808.41;;;7.07;100.00
19748;BME280;10032;51.386;12.516;2023-04-30T02:49:14;100806.34;;;6.96;100.00
19748;BME280;10032;51.386;12.516;2023-04-30T02:51:40;100810.91;;;6.96;100.00
19748;BME280;10032;51.386;12.516;2023-04-30T02:54:05;100808.00;;;6.97;100.00
19748;BME280;10032;51.386;12.516;2023-04-30T02:56:31;100806.97;;;6.98;100.00
19748;BME280;10032;51.386;12.516;2023-04-30T02:58:56;100815.69;;;6.94;100.00
19748;BME280;10032;51.386;12.516;2023-04-30T03:01:21;100819.63;;;6.91;100.00
19748;BME280;10032;51.386;12.516;2023-04-30T03:03:47;100818.59;;;6.92;100.00
19748;BME280;10032;51.386;12.516;2023-04-30T03:06:12;100819.63;;;6.91;100.00
19748;BME280;10032;51.386;12.516;2023-04-30T03:08:38;100827.31;;;6.81;100.00
19748;BME280;10032;51.386;12.516;2023-04-30T03:11:03;100829.19;;;6.74;100.00
19748;BME280;10032;51.386;12.516;2023-04-30T03:13:28;100822.34;;;6.65;100.00
19748;BME280;10032;51.386;12.516;2023-04-30T03:15:58;100827.31;;;6.68;100.00
19748;BME280;10032;51.386;12.516;2023-04-30T03:18:24;100831.22;;;6.72;100.00
19748;BME280;10032;51.386;12.516;2023-04-30T03:20:49;100826.47;;;6.61;100.00
19748;BME280;10032;51.386;12.516;2023-04-30T03:23:15;100833.34;;;6.57;100.00
19748;BME280;10032;51.386;12.516;2023-04-30T03:25:40;100836.22;;;6.56;100.00
19748;BME280;10032;51.386;12.516;2023-04-30T03:28:06;100839.13;;;6.54;100.00
19748;BME280;10032;51.386;12.516;2023-04-30T03:30:31;100842.84;;;6.53;100.00
19748;BME280;10032;51.386;12.516;2023-04-30T03:32:57;100843.25;;;6.50;100.00
19748;BME280;10032;51.386;12.516;2023-04-30T03:35:22;100842.00;;;6.46;100.00
19748;BME280;10032;51.386;12.516;2023-04-30T03:37:48;100843.03;;;6.45;100.00
19748;BME280;10032;51.386;12.516;2023-04-30T03:40:13;100850.91;;;6.47;100.00
19748;BME280;10032;51.386;12.516;2023-04-30T03:42:38;100844.91;;;6.45;100.00
19748;BME280;10032;51.386;12.516;2023-04-30T03:45:04;100847.41;;;6.40;100.00
19748;BME280;10032;51.386;12.516;2023-04-30T03:47:30;100850.91;;;6.34;100.00
19748;BME280;10032;51.386;12.516;2023-04-30T03:49:55;100844.06;;;6.31;100.00
19748;BME280;10032;51.386;12.516;2023-04-30T03:52:21;100844.69;;;6.33;100.00
19748;BME280;10032;51.386;12.516;2023-04-30T03:54:46;100855.22;;;6.28;100.00
19748;BME280;10032;51.386;12.516;2023-04-30T03:57:12;100862.91;;;6.31;100.00
19748;BME280;10032;51.386;12.516;2023-04-30T03:59:39;100861.88;;;6.32;100.00
19748;BME280;10032;51.386;12.516;2023-04-30T04:02:05;100852.97;;;6.38;100.00
19748;BME280;10032;51.386;12.516;2023-04-30T04:04:34;100862.69;;;6.39;100.00
19748;BME280;10032;51.386;12.516;2023-04-30T04:06:59;100863.53;;;6.40;100.00
19748;BME280;10032;51.386;12.516;2023-04-30T04:09:27;100864.38;;;6.34;100.00
19748;BME280;10032;51.386;12.516;2023-04-30T04:11:52;100870.13;;;6.31;100.00
19748;BME280;10032;51.386;12.516;2023-04-30T04:14:17;100876.75;;;6.28;100.00
19748;BME280;10032;51.386;12.516;2023-04-30T04:16:43;100876.38;;;6.31;100.00
19748;BME280;10032;51.386;12.516;2023-04-30T04:19:08;100883.19;;;6.34;100.00
19748;BME280;10032;51.386;12.516;2023-04-30T04:21:35;100889.00;;;6.37;100.00
19748;BME280;10032;51.386;12.516;2023-04-30T04:24:00;100890.66;;;6.38;100.00
19748;BME280;10032;51.386;12.516;2023-04-30T04:26:32;100901.81;;;6.42;100.00
19748;BME280;10032;51.386;12.516;2023-04-30T04:28:58;100901.19;;;6.46;100.00
19748;BME280;10032;51.386;12.516;2023-04-30T04:31:23;100902.47;;;6.50;100.00
19748;BME280;10032;51.386;12.516;2023-04-30T04:33:49;100890.88;;;6.56;100.00
19748;BME280;10032;51.386;12.516;2023-04-30T04:36:14;100898.97;;;6.69;100.00
19748;BME280;10032;51.386;12.516;2023-04-30T04:38:40;100894.22;;;7.10;100.00
19748;BME280;10032;51.386;12.516;2023-04-30T04:41:06;100905.13;;;7.41;100.00
19748;BME280;10032;51.386;12.516;2023-04-30T04:43:31;100904.00;;;7.75;100.00
19748;BME280;10032;51.386;12.516;2023-04-30T04:45:57;100903.19;;;7.74;100.00
19748;BME280;10032;51.386;12.516;2023-04-30T04:48:22;100909.84;;;7.65;100.00
19748;BME280;10032;51.386;12.516;2023-04-30T04:50:48;100919.59;;;8.17;100.00
19748;BME280;10032;51.386;12.516;2023-04-30T04:53:13;100918.84;;;8.47;100.00
19748;BME280;10032;51.386;12.516;2023-04-30T04:55:39;100924.22;;;8.78;100.00
19748;BME280;10032;51.386;12.516;2023-04-30T04:58:04;100926.00;;;8.66;100.00
19748;BME280;10032;51.386;12.516;2023-04-30T05:00:30;100926.03;;;8.60;100.00
19748;BME280;10032;51.386;12.516;2023-04-30T05:02:57;100925.38;;;8.64;100.00
19748;BME280;10032;51.386;12.516;2023-04-30T05:05:23;100925.34;;;8.71;100.00
19748;BME280;10032;51.386;12.516;2023-04-30T05:07:48;100936.31;;;8.45;100.00
19748;BME280;10032;51.386;12.516;2023-04-30T05:10:16;100940.84;;;8.51;100.00
19748;BME280;10032;51.386;12.516;2023-04-30T05:12:41;100944.34;;;8.51;100.00
19748;BME280;10032;51.386;12.516;2023-04-30T05:15:07;100942.97;;;8.73;100.00
19748;BME280;10032;51.386;12.516;2023-04-30T05:17:32;100938.38;;;9.05;100.00
19748;BME280;10032;51.386;12.516;2023-04-30T05:19:58;100949.19;;;9.29;100.00
19748;BME280;10032;51.386;12.516;2023-04-30T05:22:23;100939.69;;;9.20;100.00
19748;BME280;10032;51.386;12.516;2023-04-30T05:24:49;100953.16;;;9.27;100.00
19748;BME280;10032;51.386;12.516;2023-04-30T05:27:17;100954.09;;;9.39;100.00
19748;BME280;10032;51.386;12.516;2023-04-30T05:29:42;100954.81;;;9.03;100.00
19748;BME280;10032;51.386;12.516;2023-04-30T05:32:07;100958.44;;;9.15;100.00
19748;BME280;10032;51.386;12.516;2023-04-30T05:34:33;100955.31;;;9.43;100.00
19748;BME280;10032;51.386;12.516;2023-04-30T05:36:58;100958.34;;;9.28;100.00
19748;BME280;10032;51.386;12.516;2023-04-30T05:39:24;100956.16;;;9.19;100.00
19748;BME280;10032;51.386;12.516;2023-04-30T05:41:49;100963.19;;;9.44;100.00
19748;BME280;10032;51.386;12.516;2023-04-30T05:44:14;100962.19;;;9.63;100.00
19748;BME280;10032;51.386;12.516;2023-04-30T05:46:40;100965.34;;;9.60;100.00
19748;BME280;10032;51.386;12.516;2023-04-30T05:49:05;100970.00;;;9.89;100.00
19748;BME280;10032;51.386;12.516;2023-04-30T05:51:31;100968.38;;;10.24;100.00
19748;BME280;10032;51.386;12.516;2023-04-30T05:53:56;100956.63;;;10.48;100.00
19748;BME280;10032;51.386;12.516;2023-04-30T05:56:22;100960.91;;;10.56;100.00
19748;BME280;10032;51.386;12.516;2023-04-30T05:58:48;100959.47;;;10.53;100.00
19748;BME280;10032;51.386;12.516;2023-04-30T06:01:17;100960.38;;;10.77;100.00
19748;BME280;10032;51.386;12.516;2023-04-30T06:03:43;100958.81;;;10.69;100.00
19748;BME280;10032;51.386;12.516;2023-04-30T06:06:09;100962.25;;;10.76;100.00
19748;BME280;10032;51.386;12.516;2023-04-30T06:08:35;100968.53;;;10.77;100.00
19748;BME280;10032;51.386;12.516;2023-04-30T06:11:00;100964.06;;;10.53;100.00
19748;BME280;10032;51.386;12.516;2023-04-30T06:13:27;100971.97;;;10.54;100.00
19748;BME280;10032;51.386;12.516;2023-04-30T06:15:53;100966.97;;;10.51;100.00
19748;BME280;10032;51.386;12.516;2023-04-30T06:18:18;100982.38;;;10.39;100.00
19748;BME280;10032;51.386;12.516;2023-04-30T06:20:44;100974.13;;;10.16;100.00
19748;BME280;10032;51.386;12.516;2023-04-30T06:23:10;100983.13;;;10.28;100.00
19748;BME280;10032;51.386;12.516;2023-04-30T06:25:35;100982.50;;;10.44;100.00
19748;BME280;10032;51.386;12.516;2023-04-30T06:28:01;100988.28;;;10.48;100.00
19748;BME280;10032;51.386;12.516;2023-04-30T06:30:26;100987.59;;;10.52;100.00
19748;BME280;10032;51.386;12.516;2023-04-30T06:32:52;100981.00;;;10.48;100.00
19748;BME280;10032;51.386;12.516;2023-04-30T06:35:17;100985.44;;;10.43;100.00
19748;BME280;10032;51.386;12.516;2023-04-30T06:37:43;100985.28;;;10.56;100.00
19748;BME280;10032;51.386;12.516;2023-04-30T06:40:08;100977.66;;;10.64;100.00
19748;BME280;10032;51.386;12.516;2023-04-30T06:42:34;100975.50;;;10.96;100.00
19748;BME280;10032;51.386;12.516;2023-04-30T06:45:00;100978.34;;;11.01;100.00
19748;BME280;10032;51.386;12.516;2023-04-30T06:47:27;100981.56;;;11.09;100.00
19748;BME280;10032;51.386;12.516;2023-04-30T06:49:52;100983.81;;;11.12;100.00
19748;BME280;10032;51.386;12.516;2023-04-30T06:52:17;100984.81;;;11.41;100.00
19748;BME280;10032;51.386;12.516;2023-04-30T06:54:43;100981.63;;;11.55;100.00
19748;BME280;10032;51.386;12.516;2023-04-30T06:57:08;100984.72;;;11.70;100.00
19748;BME280;10032;51.386;12.516;2023-04-30T06:59:34;100980.47;;;11.63;100.00
19748;BME280;10032;51.386;12.516;2023-04-30T07:01:59;100983.78;;;11.76;100.00
19748;BME280;10032;51.386;12.516;2023-04-30T07:04:25;100987.91;;;11.90;100.00
19748;BME280;10032;51.386;12.516;2023-04-30T07:06:51;100987.50;;;12.21;100.00
19748;BME280;10032;51.386;12.516;2023-04-30T07:09:16;100986.19;;;12.24;100.00
19748;BME280;10032;51.386;12.516;2023-04-30T07:11:42;100985.63;;;12.10;100.00
19748;BME280;10032;51.386;12.516;2023-04-30T07:14:07;100987.66;;;12.54;100.00
19748;BME280;10032;51.386;12.516;2023-04-30T07:16:32;100993.75;;;12.61;100.00
19748;BME280;10032;51.386;12.516;2023-04-30T07:18:58;100991.50;;;12.58;100.00
19748;BME280;10032;51.386;12.516;2023-04-30T07:21:24;100993.44;;;12.46;100.00
19748;BME280;10032;51.386;12.516;2023-04-30T07:23:50;100989.97;;;12.23;100.00
19748;BME280;10032;51.386;12.516;2023-04-30T07:26:16;100993.00;;;12.49;100.00
19748;BME280;10032;51.386;12.516;2023-04-30T07:28:41;100982.59;;;12.74;100.00
19748;BME280;10032;51.386;12.516;2023-04-30T07:31:07;100989.38;;;12.88;100.00
19748;BME280;10032;51.386;12.516;2023-04-30T07:33:32;100991.91;;;12.50;100.00
19748;BME280;10032;51.386;12.516;2023-04-30T07:35:58;100983.09;;;12.43;100.00
19748;BME280;10032;51.386;12.516;2023-04-30T07:38:23;100997.59;;;12.77;100.00
19748;BME280;10032;51.386;12.516;2023-04-30T07:40:49;100993.31;;;12.81;100.00
19748;BME280;10032;51.386;12.516;2023-04-30T07:43:14;100992.19;;;12.93;100.00
19748;BME280;10032;51.386;12.516;2023-04-30T07:45:40;100990.56;;;12.92;100.00
19748;BME280;10032;51.386;12.516;2023-04-30T07:48:06;100995.03;;;12.70;100.00
19748;BME280;10032;51.386;12.516;2023-04-30T07:50:32;100991.72;;;12.68;100.00
19748;BME280;10032;51.386;12.516;2023-04-30T07:53:01;100989.97;;;12.90;100.00
19748;BME280;10032;51.386;12.516;2023-04-30T07:55:27;100988.81;;;13.14;100.00
19748;BME280;10032;51.386;12.516;2023-04-30T07:57:52;100996.41;;;13.12;100.00
19748;BME280;10032;51.386;12.516;2023-04-30T08:00:18;100994.28;;;13.31;100.00
19748;BME280;10032;51.386;12.516;2023-04-30T08:02:43;101001.44;;;13.20;100.00
19748;BME280;10032;51.386;12.516;2023-04-30T08:05:10;100991.06;;;13.17;100.00
19748;BME280;10032;51.386;12.516;2023-04-30T08:07:35;100994.94;;;13.54;100.00
19748;BME280;10032;51.386;12.516;2023-04-30T08:10:01;100993.59;;;13.73;100.00
19748;BME280;10032;51.386;12.516;2023-04-30T08:12:26;100997.19;;;13.95;100.00
19748;BME280;10032;51.386;12.516;2023-04-30T08:15:01;100986.94;;;14.02;100.00
19748;BME280;10032;51.386;12.516;2023-04-30T08:17:29;100997.63;;;14.09;100.00
19748;BME280;10032;51.386;12.516;2023-04-30T08:19:54;100990.53;;;14.08;100.00
19748;BME280;10032;51.386;12.516;2023-04-30T08:22:20;100992.31;;;13.97;99.17
19748;BME280;10032;51.386;12.516;2023-04-30T08:24:45;100999.03;;;13.90;97.30
19748;BME280;10032;51.386;12.516;2023-04-30T08:27:11;100993.34;;;14.13;99.84
19748;BME280;10032;51.386;12.516;2023-04-30T08:29:36;100998.66;;;14.19;98.60
19748;BME280;10032;51.386;12.516;2023-04-30T08:32:02;100995.28;;;14.34;99.15
19748;BME280;10032;51.386;12.516;2023-04-30T08:34:28;100989.09;;;14.38;96.33
19748;BME280;10032;51.386;12.516;2023-04-30T08:36:53;100991.56;;;14.61;98.74
19748;BME280;10032;51.386;12.516;2023-04-30T08:39:19;100995.56;;;14.80;96.81
19748;BME280;10032;51.386;12.516;2023-04-30T08:41:45;100990.84;;;14.97;94.96
19748;BME280;10032;51.386;12.516;2023-04-30T08:44:12;100996.72;;;15.11;93.64
19748;BME280;10032;51.386;12.516;2023-04-30T08:46:37;100987.53;;;15.22;93.57
19748;BME280;10032;51.386;12.516;2023-04-30T08:49:03;100980.44;;;15.21;92.57
19748;BME280;10032;51.386;12.516;2023-04-30T08:51:32;100990.69;;;15.35;91.94
19748;BME280;10032;51.386;12.516;2023-04-30T08:53:59;100986.81;;;15.31;87.57
19748;BME280;10032;51.386;12.516;2023-04-30T08:56:24;100986.31;;;15.08;82.83
19748;BME280;10032;51.386;12.516;2023-04-30T08:58:50;100988.69;;;14.99;83.83
19748;BME280;10032;51.386;12.516;2023-04-30T09:01:16;100981.28;;;14.95;81.62
19748;BME280;10032;51.386;12.516;2023-04-30T09:03:41;100985.81;;;15.11;81.18
19748;BME280;10032;51.386;12.516;2023-04-30T09:06:06;100982.19;;;15.05;79.40
19748;BME280;10032;51.386;12.516;2023-04-30T09:08:43;100985.78;;;15.37;81.81
19748;BME280;10032;51.386;12.516;2023-04-30T09:11:27;100979.41;;;15.58;79.38
19748;BME280;10032;51.386;12.516;2023-04-30T09:13:55;100983.63;;;15.39;77.68
19748;BME280;10032;51.386;12.516;2023-04-30T09:16:22;100986.38;;;15.39;77.95
19748;BME280;10032;51.386;12.516;2023-04-30T09:18:48;100982.56;;;15.82;80.68
19748;BME280;10032;51.386;12.516;2023-04-30T09:21:14;100987.34;;;16.01;78.92
19748;BME280;10032;51.386;12.516;2023-04-30T09:23:56;100984.69;;;16.16;78.98
19748;BME280;10032;51.386;12.516;2023-04-30T09:26:36;100990.59;;;16.40;78.00
19748;BME280;10032;51.386;12.516;2023-04-30T09:29:02;100980.59;;;16.85;78.83
19748;BME280;10032;51.386;12.516;2023-04-30T09:31:35;100987.44;;;16.78;70.55
19748;BME280;10032;51.386;12.516;2023-04-30T09:34:01;100985.81;;;16.82;74.62
19748;BME280;10032;51.386;12.516;2023-04-30T09:36:28;100984.47;;;16.89;73.45
19748;BME280;10032;51.386;12.516;2023-04-30T09:38:54;100983.09;;;16.87;72.02
19748;BME280;10032;51.386;12.516;2023-04-30T09:41:29;100979.53;;;16.86;69.35
19748;BME280;10032;51.386;12.516;2023-04-30T09:43:55;100973.28;;;17.11;71.75
19748;BME280;10032;51.386;12.516;2023-04-30T09:46:23;100978.78;;;17.16;70.21
19748;BME280;10032;51.386;12.516;2023-04-30T09:48:58;100984.53;;;17.29;68.49
19748;BME280;10032;51.386;12.516;2023-04-30T09:51:24;100972.50;;;17.45;69.50
19748;BME280;10032;51.386;12.516;2023-04-30T09:53:50;100968.91;;;17.80;68.81
19748;BME280;10032;51.386;12.516;2023-04-30T09:56:19;100970.75;;;18.14;68.91
19748;BME280;10032;51.386;12.516;2023-04-30T09:58:49;100971.22;;;18.41;68.47
19748;BME280;10032;51.386;12.516;2023-04-30T10:01:16;100973.31;;;18.59;68.96
19748;BME280;10032;51.386;12.516;2023-04-30T10:03:42;100975.84;;;18.51;65.68
19748;BME280;10032;51.386;12.516;2023-04-30T10:06:11;100978.72;;;18.06;61.05
19748;BME280;10032;51.386;12.516;2023-04-30T10:08:41;100967.97;;;18.34;63.33
19748;BME280;10032;51.386;12.516;2023-04-30T10:11:08;100979.50;;;18.16;57.42
19748;BME280;10032;51.386;12.516;2023-04-30T10:16:23;100965.28;;;18.04;59.30
19748;BME280;10032;51.386;12.516;2023-04-30T10:18:51;100961.44;;;18.10;57.07
19748;BME280;10032;51.386;12.516;2023-04-30T10:21:19;100959.53;;;18.06;54.97
19748;BME280;10032;51.386;12.516;2023-04-30T10:23:47;100961.97;;;18.07;55.73
19748;BME280;10032;51.386;12.516;2023-04-30T10:26:13;100958.16;;;18.03;54.59
19748;BME280;10032;51.386;12.516;2023-04-30T10:28:41;100962.50;;;18.19;54.62
19748;BME280;10032;51.386;12.516;2023-04-30T10:31:07;100956.19;;;18.19;54.42
19748;BME280;10032;51.386;12.516;2023-04-30T10:33:48;100955.31;;;18.38;54.18
19748;BME280;10032;51.386;12.516;2023-04-30T10:36:25;100951.91;;;17.73;52.37
19748;BME280;10032;51.386;12.516;2023-04-30T10:38:55;100946.66;;;17.96;54.59
19748;BME280;10032;51.386;12.516;2023-04-30T10:41:22;100944.41;;;18.18;53.34
19748;BME280;10032;51.386;12.516;2023-04-30T10:43:50;100939.09;;;18.42;54.73
19748;BME280;10032;51.386;12.516;2023-04-30T10:46:22;100942.59;;;18.57;53.34
19748;BME280;10032;51.386;12.516;2023-04-30T10:48:49;100929.66;;;18.63;52.67
19748;BME280;10032;51.386;12.516;2023-04-30T10:51:14;100925.78;;;19.07;53.37
19748;BME280;10032;51.386;12.516;2023-04-30T10:53:41;100921.31;;;19.16;52.61
19748;BME280;10032;51.386;12.516;2023-04-30T10:56:08;100923.16;;;18.92;49.93
19748;BME280;10032;51.386;12.516;2023-04-30T10:58:35;100929.47;;;18.93;50.15
19748;BME280;10032;51.386;12.516;2023-04-30T11:01:12;100924.19;;;19.01;50.40
19748;BME280;10032;51.386;12.516;2023-04-30T11:06:48;100924.59;;;19.23;49.48
19748;BME280;10032;51.386;12.516;2023-04-30T11:09:14;100923.50;;;19.24;48.89
19748;BME280;10032;51.386;12.516;2023-04-30T11:11:43;100913.19;;;19.40;48.51
19748;BME280;10032;51.386;12.516;2023-04-30T11:14:10;100907.44;;;19.36;47.83
19748;BME280;10032;51.386;12.516;2023-04-30T11:16:36;100904.59;;;19.46;48.86
19748;BME280;10032;51.386;12.516;2023-04-30T11:19:12;100905.22;;;19.67;48.52
19748;BME280;10032;51.386;12.516;2023-04-30T11:22:14;100907.78;;;19.58;48.10
19748;BME280;10032;51.386;12.516;2023-04-30T11:27:18;100915.66;;;19.41;46.59
19748;BME280;10032;51.386;12.516;2023-04-30T11:29:44;100901.53;;;19.24;46.26
19748;BME280;10032;51.386;12.516;2023-04-30T11:32:11;100898.13;;;19.32;47.03
19748;BME280;10032;51.386;12.516;2023-04-30T11:34:37;100899.13;;;19.46;47.58
19748;BME280;10032;51.386;12.516;2023-04-30T11:37:02;100894.41;;;19.47;46.02
19748;BME280;10032;51.386;12.516;2023-04-30T11:39:28;100895.28;;;19.42;46.20
19748;BME280;10032;51.386;12.516;2023-04-30T11:41:55;100891.22;;;19.63;45.58
19748;BME280;10032;51.386;12.516;2023-04-30T11:44:30;100892.19;;;19.77;46.21
19748;BME280;10032;51.386;12.516;2023-04-30T11:46:56;100890.53;;;19.76;45.19
19748;BME280;10032;51.386;12.516;2023-04-30T11:49:21;100894.75;;;19.92;44.94
19748;BME280;10032;51.386;12.516;2023-04-30T11:51:48;100885.41;;;19.93;45.49
19748;BME280;10032;51.386;12.516;2023-04-30T11:54:14;100884.97;;;20.05;45.02
19748;BME280;10032;51.386;12.516;2023-04-30T11:56:45;100880.94;;;19.74;44.69
19748;BME280;10032;51.386;12.516;2023-04-30T11:59:14;100876.38;;;19.64;45.08
19748;BME280;10032;51.386;12.516;2023-04-30T12:01:43;100877.84;;;20.04;45.23
19748;BME280;10032;51.386;12.516;2023-04-30T12:04:09;100871.38;;;19.71;43.85
19748;BME280;10032;51.386;12.516;2023-04-30T12:06:35;100878.94;;;19.56;43.79
19748;BME280;10032;51.386;12.516;2023-04-30T12:09:02;100873.22;;;19.52;43.93
19748;BME280;10032;51.386;12.516;2023-04-30T12:11:32;100866.59;;;19.77;43.32
19748;BME280;10032;51.386;12.516;2023-04-30T12:14:08;100860.09;;;19.68;43.66
19748;BME280;10032;51.386;12.516;2023-04-30T12:16:50;100877.06;;;19.51;42.75
19748;BME280;10032;51.386;12.516;2023-04-30T12:19:17;100871.94;;;19.06;42.63
19748;BME280;10032;51.386;12.516;2023-04-30T12:21:44;100868.84;;;18.84;42.94
19748;BME280;10032;51.386;12.516;2023-04-30T12:24:14;100872.81;;;19.02;43.18
19748;BME280;10032;51.386;12.516;2023-04-30T12:26:40;100865.66;;;19.34;43.14
19748;BME280;10032;51.386;12.516;2023-04-30T12:29:15;100864.19;;;19.47;44.00
19748;BME280;10032;51.386;12.516;2023-04-30T12:31:41;100878.97;;;19.79;43.27
19748;BME280;10032;51.386;12.516;2023-04-30T12:34:12;100876.84;;;19.95;43.43
19748;BME280;10032;51.386;12.516;2023-04-30T12:36:39;100867.94;;;20.26;43.83
19748;BME280;10032;51.386;12.516;2023-04-30T12:39:10;100860.81;;;20.44;43.07
19748;BME280;10032;51.386;12.516;2023-04-30T12:41:43;100868.09;;;20.53;43.77
19748;BME280;10032;51.386;12.516;2023-04-30T12:46:46;100872.78;;;20.53;42.96
19748;BME280;10032;51.386;12.516;2023-04-30T12:49:21;100866.47;;;20.52;43.15
19748;BME280;10032;51.386;12.516;2023-04-30T12:51:47;100867.44;;;20.24;41.83
19748;BME280;10032;51.386;12.516;2023-04-30T12:54:12;100859.31;;;20.14;42.06
19748;BME280;10032;51.386;12.516;2023-04-30T12:56:38;100849.97;;;20.52;42.18
19748;BME280;10032;51.386;12.516;2023-04-30T12:59:14;100849.03;;;20.75;42.27
19748;BME280;10032;51.386;12.516;2023-04-30T13:01:44;100849.97;;;20.52;42.13